Akebono — JG5644 — position and weather

sailwx.info

Track history (hours):
 
Tides and Currents Weather Stations Pressure Air Temp Water Temp Dewpoint Dewpoint Depression Visibility Wind Speed Wind Dir Waves Ship Positions

Akebono

Last reported at 2014-Jul-22 07:33 UTC. Time now 2014-Jul-22 15:00 UTC.
Position N 35°28' E 139°39'.

Length 33 m; draft 4.4 m.

Type: Tug. MMSI: 431000233.

Date/timePositionNaut miles runAvg speedWind from/ knotsBaromVisibWave heightAir tempDewpointWater temp
2014-Jul-22 07:33N 35°28' E 139°39'1 0.9
2014-Jul-22 06:34N 35°27' E 139°39'7 6.9
2014-Jul-22 05:33N 35°30' E 139°47'9 8.5
2014-Jul-22 04:33N 35°30' E 139°58'2 2.5
2014-Jul-22 03:33N 35°29' E 140°01'1 1.4
2014-Jul-22 02:33N 35°30' E 139°59'0 0.4
2014-Jul-22 01:33N 35°29' E 139°59'0 0.3
2014-Jul-22 00:33N 35°29' E 139°58'8 7.9
2014-Jul-21 23:33N 35°28' E 139°49'6 6.4
2014-Jul-21 22:34N 35°28' E 139°41'2 1.7
2014-Jul-21 21:33N 35°27' E 139°43'3 3.5
2014-Jul-21 20:33N 35°27' E 139°38'0 0.0
2014-Jul-21 07:10N 35°27' E 139°38'0 0.0
2014-Jul-21 06:33N 35°27' E 139°38'0 0.0
2014-Jul-21 05:34N 35°27' E 139°38'0 0.0
2014-Jul-21 04:34N 35°27' E 139°38'0 0.0
2014-Jul-21 03:34N 35°27' E 139°38'3 2.9
2014-Jul-21 02:34N 35°27' E 139°42'5 4.9
2014-Jul-21 01:34N 35°29' E 139°47'2 1.5
2014-Jul-21 00:33N 35°28' E 139°47'1 1.4
2014-Jul-20 23:33N 35°29' E 139°46'0 0.0
2014-Jul-20 22:34N 35°29' E 139°46'2 1.7
2014-Jul-20 21:33N 35°30' E 139°45'6 6.3
2014-Jul-20 20:33N 35°28' E 139°39'  
2014-Jul-18 08:06N 35°27' E 139°38'0 0.0
2014-Jul-18 07:34N 35°27' E 139°38'0 0.0
2014-Jul-18 06:33N 35°27' E 139°38'2 1.6
2014-Jul-18 05:34N 35°28' E 139°40'0 0.0
2014-Jul-18 04:34N 35°28' E 139°40'0 0.0
2014-Jul-18 03:34N 35°28' E 139°40'4 4.1
2014-Jul-18 02:34N 35°28' E 139°45'2 1.7
2014-Jul-18 01:34N 35°29' E 139°47'0 0.4
2014-Jul-18 00:34N 35°29' E 139°47'4 4.0
2014-Jul-17 23:34N 35°25' E 139°45'5 5.4
2014-Jul-17 22:33N 35°28' E 139°39'0 0.0
2014-Jul-17 06:34N 35°28' E 139°38'2 1.6
2014-Jul-17 05:33N 35°28' E 139°40'0 0.0
2014-Jul-17 04:33N 35°28' E 139°40'0 0.0
2014-Jul-17 03:33N 35°28' E 139°40'0 0.0
2014-Jul-17 02:33N 35°28' E 139°40'0 0.0
2014-Jul-17 01:33N 35°28' E 139°40'0 0.0
2014-Jul-17 00:33N 35°28' E 139°40'0 0.0
2014-Jul-16 23:34N 35°28' E 139°40'5 5.3
2014-Jul-16 22:33N 35°29' E 139°47'2 2.4
2014-Jul-16 21:33N 35°28' E 139°44'5 4.6
2014-Jul-16 20:33N 35°27' E 139°38'0 0.0
2014-Jul-16 09:27N 35°27' E 139°38'4 4.3
2014-Jul-16 08:33N 35°24' E 139°40'0 0.4
2014-Jul-16 07:33N 35°24' E 139°41'1 1.4
2014-Jul-16 06:33N 35°25' E 139°42'3 2.5
2014-Jul-16 05:33N 35°27' E 139°39'1 1.2
2014-Jul-16 04:33N 35°27' E 139°41'2 1.9
2014-Jul-16 03:34N 35°26' E 139°43'4 4.0
2014-Jul-16 02:34N 35°27' E 139°38'0 0.0
2014-Jul-16 01:33N 35°27' E 139°38'0 0.0
2014-Jul-16 00:33N 35°27' E 139°38'0 0.0
2014-Jul-15 23:33N 35°27' E 139°38'0 0.0
2014-Jul-15 22:33N 35°27' E 139°38'0 0.0
2014-Jul-15 02:11N 35°27' E 139°38'4 7.1
2014-Jul-15 01:34N 35°24' E 139°41'3 2.8
2014-Jul-15 00:34N 35°24' E 139°38'1 1.4
2014-Jul-14 23:34N 35°23' E 139°40'1 1.2
2014-Jul-14 22:34N 35°23' E 139°41'3 3.5
2014-Jul-14 21:34N 35°27' E 139°41'1 1.1
2014-Jul-14 20:34N 35°26' E 139°42'0 0.0
2014-Jul-14 19:33N 35°26' E 139°42'1 1.4
2014-Jul-14 18:33N 35°27' E 139°40'1 0.8
2014-Jul-14 17:34N 35°28' E 139°40'0 0.1
2014-Jul-14 16:34N 35°27' E 139°40'0 0.1
2014-Jul-14 15:34N 35°28' E 139°40'0 0.0
2014-Jul-14 14:33N 35°28' E 139°40'0 0.0
2014-Jul-14 13:33N 35°28' E 139°40'0 0.0
2014-Jul-14 12:33N 35°28' E 139°40'0 0.0
2014-Jul-14 11:33N 35°28' E 139°40'2 2.1
2014-Jul-14 10:33N 35°26' E 139°42'1 1.3
2014-Jul-14 09:33N 35°28' E 139°42'1 1.0
2014-Jul-14 08:33N 35°28' E 139°41'1 1.0
2014-Jul-14 07:33N 35°28' E 139°40'1 1.4
2014-Jul-14 06:33N 35°26' E 139°41'1 1.4
2014-Jul-14 05:33N 35°28' E 139°40'3 3.1
2014-Jul-14 04:33N 35°30' E 139°43'3 2.6
2014-Jul-14 03:33N 35°31' E 139°46'3 3.5
2014-Jul-14 02:33N 35°28' E 139°44'5 4.6
2014-Jul-14 01:33N 35°27' E 139°38'0 0.0
2014-Jul-14 00:34N 35°27' E 139°38'0 0.0
2014-Jul-13 23:33N 35°27' E 139°38'0 0.0
2014-Jul-13 22:33N 35°27' E 139°38'0 0.0
2014-Jul-13 21:34N 35°27' E 139°38'0 0.0
2014-Jul-13 20:33N 35°27' E 139°38'0 0.0
2014-Jul-13 06:33N 35°27' E 139°38'3 3.4
2014-Jul-13 05:33N 35°27' E 139°43'4 4.0
2014-Jul-13 04:33N 35°29' E 139°47'0 0.2
2014-Jul-13 03:33N 35°29' E 139°47'2 2.4
2014-Jul-13 02:33N 35°27' E 139°45'1 1.3
2014-Jul-13 01:33N 35°28' E 139°43'0 0.0
2014-Jul-13 00:33N 35°28' E 139°43'3 2.8
2014-Jul-12 23:34N 35°26' E 139°41'2 1.5
2014-Jul-12 22:33N 35°26' E 139°43'3 3.2
2014-Jul-12 21:33N 35°27' E 139°39'1 0.0
2014-Jul-12 08:28N 35°27' E 139°38'  
Track history (hours):
 
Tides and Currents Weather Stations Pressure Air Temp Water Temp Dewpoint Dewpoint Depression Visibility Wind Speed Wind Dir Waves Ship Positions

Akebono

Last reported at 2014-Jul-22 07:33 UTC. Time now 2014-Jul-22 15:00 UTC.
Position N 35°28' E 139°39'.

Length 33 m; draft 4.4 m.

Type: Tug. MMSI: 431000233.

Date/timePositionNaut miles runAvg speedWind from/ knotsBaromVisibWave heightAir tempDewpointWater temp
2014-Jul-22 07:33N 35°28' E 139°39'1 0.9
2014-Jul-22 06:34N 35°27' E 139°39'7 6.9
2014-Jul-22 05:33N 35°30' E 139°47'9 8.5
2014-Jul-22 04:33N 35°30' E 139°58'2 2.5
2014-Jul-22 03:33N 35°29' E 140°01'1 1.4
2014-Jul-22 02:33N 35°30' E 139°59'0 0.4
2014-Jul-22 01:33N 35°29' E 139°59'0 0.3
2014-Jul-22 00:33N 35°29' E 139°58'8 7.9
2014-Jul-21 23:33N 35°28' E 139°49'6 6.4
2014-Jul-21 22:34N 35°28' E 139°41'2 1.7
2014-Jul-21 21:33N 35°27' E 139°43'3 3.5
2014-Jul-21 20:33N 35°27' E 139°38'0 0.0
2014-Jul-21 07:10N 35°27' E 139°38'0 0.0
2014-Jul-21 06:33N 35°27' E 139°38'0 0.0
2014-Jul-21 05:34N 35°27' E 139°38'0 0.0
2014-Jul-21 04:34N 35°27' E 139°38'0 0.0
2014-Jul-21 03:34N 35°27' E 139°38'3 2.9
2014-Jul-21 02:34N 35°27' E 139°42'5 4.9
2014-Jul-21 01:34N 35°29' E 139°47'2 1.5
2014-Jul-21 00:33N 35°28' E 139°47'1 1.4
2014-Jul-20 23:33N 35°29' E 139°46'0 0.0
2014-Jul-20 22:34N 35°29' E 139°46'2 1.7
2014-Jul-20 21:33N 35°30' E 139°45'6 6.3
2014-Jul-20 20:33N 35°28' E 139°39'  
2014-Jul-18 08:06N 35°27' E 139°38'0 0.0
2014-Jul-18 07:34N 35°27' E 139°38'0 0.0
2014-Jul-18 06:33N 35°27' E 139°38'2 1.6
2014-Jul-18 05:34N 35°28' E 139°40'0 0.0
2014-Jul-18 04:34N 35°28' E 139°40'0 0.0
2014-Jul-18 03:34N 35°28' E 139°40'4 4.1
2014-Jul-18 02:34N 35°28' E 139°45'2 1.7
2014-Jul-18 01:34N 35°29' E 139°47'0 0.4
2014-Jul-18 00:34N 35°29' E 139°47'4 4.0
2014-Jul-17 23:34N 35°25' E 139°45'5 5.4
2014-Jul-17 22:33N 35°28' E 139°39'0 0.0
2014-Jul-17 06:34N 35°28' E 139°38'2 1.6
2014-Jul-17 05:33N 35°28' E 139°40'0 0.0
2014-Jul-17 04:33N 35°28' E 139°40'0 0.0
2014-Jul-17 03:33N 35°28' E 139°40'0 0.0
2014-Jul-17 02:33N 35°28' E 139°40'0 0.0
2014-Jul-17 01:33N 35°28' E 139°40'0 0.0
2014-Jul-17 00:33N 35°28' E 139°40'0 0.0
2014-Jul-16 23:34N 35°28' E 139°40'5 5.3
2014-Jul-16 22:33N 35°29' E 139°47'2 2.4
2014-Jul-16 21:33N 35°28' E 139°44'5 4.6
2014-Jul-16 20:33N 35°27' E 139°38'0 0.0
2014-Jul-16 09:27N 35°27' E 139°38'4 4.3
2014-Jul-16 08:33N 35°24' E 139°40'0 0.4
2014-Jul-16 07:33N 35°24' E 139°41'1 1.4
2014-Jul-16 06:33N 35°25' E 139°42'3 2.5
2014-Jul-16 05:33N 35°27' E 139°39'1 1.2
2014-Jul-16 04:33N 35°27' E 139°41'2 1.9
2014-Jul-16 03:34N 35°26' E 139°43'4 4.0
2014-Jul-16 02:34N 35°27' E 139°38'0 0.0
2014-Jul-16 01:33N 35°27' E 139°38'0 0.0
2014-Jul-16 00:33N 35°27' E 139°38'0 0.0
2014-Jul-15 23:33N 35°27' E 139°38'0 0.0
2014-Jul-15 22:33N 35°27' E 139°38'0 0.0
2014-Jul-15 02:11N 35°27' E 139°38'4 7.1
2014-Jul-15 01:34N 35°24' E 139°41'3 2.8
2014-Jul-15 00:34N 35°24' E 139°38'1 1.4
2014-Jul-14 23:34N 35°23' E 139°40'1 1.2
2014-Jul-14 22:34N 35°23' E 139°41'3 3.5
2014-Jul-14 21:34N 35°27' E 139°41'1 1.1
2014-Jul-14 20:34N 35°26' E 139°42'0 0.0
2014-Jul-14 19:33N 35°26' E 139°42'1 1.4
2014-Jul-14 18:33N 35°27' E 139°40'1 0.8
2014-Jul-14 17:34N 35°28' E 139°40'0 0.1
2014-Jul-14 16:34N 35°27' E 139°40'0 0.1
2014-Jul-14 15:34N 35°28' E 139°40'0 0.0
2014-Jul-14 14:33N 35°28' E 139°40'0 0.0
2014-Jul-14 13:33N 35°28' E 139°40'0 0.0
2014-Jul-14 12:33N 35°28' E 139°40'0 0.0
2014-Jul-14 11:33N 35°28' E 139°40'2 2.1
2014-Jul-14 10:33N 35°26' E 139°42'1 1.3
2014-Jul-14 09:33N 35°28' E 139°42'1 1.0
2014-Jul-14 08:33N 35°28' E 139°41'1 1.0
2014-Jul-14 07:33N 35°28' E 139°40'1 1.4
2014-Jul-14 06:33N 35°26' E 139°41'1 1.4
2014-Jul-14 05:33N 35°28' E 139°40'3 3.1
2014-Jul-14 04:33N 35°30' E 139°43'3 2.6
2014-Jul-14 03:33N 35°31' E 139°46'3 3.5
2014-Jul-14 02:33N 35°28' E 139°44'5 4.6
2014-Jul-14 01:33N 35°27' E 139°38'0 0.0
2014-Jul-14 00:34N 35°27' E 139°38'0 0.0
2014-Jul-13 23:33N 35°27' E 139°38'0 0.0
2014-Jul-13 22:33N 35°27' E 139°38'0 0.0
2014-Jul-13 21:34N 35°27' E 139°38'0 0.0
2014-Jul-13 20:33N 35°27' E 139°38'0 0.0
2014-Jul-13 06:33N 35°27' E 139°38'3 3.4
2014-Jul-13 05:33N 35°27' E 139°43'4 4.0
2014-Jul-13 04:33N 35°29' E 139°47'0 0.2
2014-Jul-13 03:33N 35°29' E 139°47'2 2.4
2014-Jul-13 02:33N 35°27' E 139°45'1 1.3
2014-Jul-13 01:33N 35°28' E 139°43'0 0.0
2014-Jul-13 00:33N 35°28' E 139°43'3 2.8
2014-Jul-12 23:34N 35°26' E 139°41'2 1.5
2014-Jul-12 22:33N 35°26' E 139°43'3 3.2
2014-Jul-12 21:33N 35°27' E 139°39'1 0.0
2014-Jul-12 08:28N 35°27' E 139°38'  

Dump ship's entire track history